createdAt,value
2018-07-04T01:31:19.579Z,0.00
2018-07-04T01:31:20.146Z,0.00
2018-07-04T01:31:20.745Z,0.00
2018-07-04T01:31:21.348Z,0.00
2018-07-04T01:31:21.942Z,0.00
2018-07-04T01:31:22.553Z,0.00
2018-07-04T01:31:23.143Z,0.00
2018-07-04T01:31:23.741Z,0.00
2018-07-04T01:32:17.224Z,0.00
2018-07-04T01:32:17.795Z,0.00
2018-07-04T01:32:18.399Z,0.00
2018-07-04T01:32:18.995Z,0.00
2018-07-04T01:32:19.594Z,0.00
2018-07-04T01:32:20.196Z,0.00
2018-07-04T01:32:20.818Z,0.00
2018-07-04T01:32:21.397Z,0.00
2018-07-04T01:33:14.875Z,0.00
2018-07-04T01:33:15.450Z,0.00
2018-07-04T01:33:16.048Z,0.00
2018-07-04T01:33:16.649Z,0.00
2018-07-04T01:33:17.257Z,0.00
2018-07-04T01:33:17.850Z,0.00
2018-07-04T01:33:18.448Z,0.00
2018-07-04T01:33:19.048Z,0.00
2018-07-04T01:34:13.552Z,0.00
2018-07-04T01:34:14.124Z,0.00
2018-07-04T01:34:14.725Z,0.00
2018-07-04T01:34:15.323Z,0.00
2018-07-04T01:34:15.924Z,0.00
2018-07-04T01:34:16.523Z,0.00
2018-07-04T01:34:17.123Z,0.00
2018-07-04T01:34:17.723Z,0.00
2018-07-04T01:35:12.228Z,0.00
2018-07-04T01:35:12.801Z,0.00
2018-07-04T01:35:13.399Z,0.00
2018-07-04T01:35:13.999Z,0.00
2018-07-04T01:35:14.600Z,0.00
2018-07-04T01:35:15.201Z,0.00
2018-07-04T01:35:15.799Z,0.00
2018-07-04T01:35:16.399Z,0.00
2018-07-04T01:36:17.477Z,0.00
2018-07-04T01:36:17.981Z,0.00
2018-07-04T01:36:18.581Z,0.00
2018-07-04T01:36:19.181Z,0.00
2018-07-04T01:36:19.780Z,0.00
2018-07-04T01:36:20.382Z,0.00
2018-07-04T01:36:20.979Z,0.00
2018-07-04T01:36:21.581Z,0.00
2018-07-04T01:36:22.180Z,0.00
2018-07-04T01:36:22.778Z,0.00
2018-07-04T01:36:23.380Z,0.00
2018-07-04T01:36:23.980Z,0.00
2018-07-04T01:36:24.581Z,0.00
2018-07-04T01:36:25.178Z,0.00
2018-07-04T01:37:18.696Z,0.00
2018-07-04T01:37:19.266Z,0.00
2018-07-04T01:37:19.867Z,0.00
2018-07-04T01:37:20.467Z,0.00
2018-07-04T01:37:21.067Z,0.00
2018-07-04T01:37:21.665Z,0.00
2018-07-04T01:37:22.266Z,0.00
2018-07-04T01:37:22.866Z,0.00
2018-07-04T01:38:16.348Z,0.00
2018-07-04T01:38:16.919Z,0.00
2018-07-04T01:38:17.519Z,0.00
2018-07-04T01:38:18.126Z,0.00
2018-07-04T01:38:18.718Z,0.00
2018-07-04T01:38:19.319Z,0.00
2018-07-04T01:38:19.918Z,0.00
2018-07-04T01:38:20.519Z,0.00
2018-07-04T01:39:14.003Z,0.00
2018-07-04T01:39:14.572Z,0.00
2018-07-04T01:39:15.171Z,0.00
2018-07-04T01:39:15.770Z,0.00
2018-07-04T01:39:16.371Z,0.00
2018-07-04T01:39:16.971Z,0.00
2018-07-04T01:39:17.571Z,0.00
2018-07-04T01:39:18.170Z,0.00
2018-07-04T01:40:12.674Z,0.00
2018-07-04T01:40:13.247Z,0.00
2018-07-04T01:40:13.846Z,0.00
2018-07-04T01:40:14.447Z,0.00
2018-07-04T01:40:15.047Z,0.00
2018-07-04T01:40:15.646Z,0.00
2018-07-04T01:40:16.248Z,0.00
2018-07-04T01:40:16.846Z,0.00
2018-07-04T01:41:10.339Z,0.00
2018-07-04T01:41:10.900Z,0.00
2018-07-04T01:41:11.500Z,0.00
2018-07-04T01:41:12.099Z,0.00
2018-07-04T01:41:12.698Z,0.00
2018-07-04T01:41:13.298Z,0.00
2018-07-04T01:41:13.898Z,0.00
2018-07-04T01:41:14.498Z,0.00
2018-07-04T01:42:09.000Z,0.00
2018-07-04T01:42:09.573Z,0.00
2018-07-04T01:42:10.174Z,0.00
2018-07-04T01:42:10.777Z,0.00
2018-07-04T01:42:11.373Z,0.00
2018-07-04T01:42:11.977Z,0.00
2018-07-04T01:42:12.573Z,0.00
2018-07-04T01:42:13.173Z,0.00
2018-07-04T01:43:07.678Z,0.00
2018-07-04T01:43:08.249Z,0.00
2018-07-04T01:43:08.850Z,0.00
2018-07-04T01:43:09.453Z,0.00
2018-07-04T01:43:10.050Z,0.00
2018-07-04T01:43:10.648Z,0.00
2018-07-04T01:43:11.248Z,0.00
2018-07-04T01:43:11.847Z,0.00
2018-07-04T01:44:05.330Z,0.00
2018-07-04T01:44:05.903Z,0.00
2018-07-04T01:44:06.503Z,0.00
2018-07-04T01:44:07.103Z,0.00
2018-07-04T01:44:07.702Z,0.00
2018-07-04T01:44:08.302Z,0.00
2018-07-04T01:44:08.904Z,0.00
2018-07-04T01:44:09.501Z,0.00
2018-07-04T01:45:04.007Z,0.00
2018-07-04T01:45:04.577Z,0.00
2018-07-04T01:45:05.176Z,0.00
2018-07-04T01:45:05.777Z,0.00
2018-07-04T01:45:06.376Z,0.00
2018-07-04T01:45:06.976Z,0.00
2018-07-04T01:45:07.583Z,0.00
2018-07-04T01:45:08.176Z,0.00
2018-07-04T01:46:02.682Z,0.00
2018-07-04T01:46:03.253Z,0.00
2018-07-04T01:46:03.854Z,0.00
2018-07-04T01:46:04.453Z,0.00
2018-07-04T01:46:05.053Z,0.00
2018-07-04T01:46:05.653Z,0.00
2018-07-04T01:46:06.252Z,0.00
2018-07-04T01:46:06.855Z,0.00
2018-07-04T01:47:00.333Z,0.00
2018-07-04T01:47:00.907Z,0.00
2018-07-04T01:47:01.507Z,0.00
2018-07-04T01:47:02.107Z,0.00
2018-07-04T01:47:02.706Z,0.00
2018-07-04T01:47:03.304Z,0.00
2018-07-04T01:47:03.905Z,0.00
2018-07-04T01:47:04.505Z,0.00
2018-07-04T01:47:59.009Z,0.00
2018-07-04T01:47:59.579Z,0.00
2018-07-04T01:48:00.180Z,0.00
2018-07-04T01:48:00.780Z,0.00
2018-07-04T01:48:01.380Z,0.00
2018-07-04T01:48:01.980Z,0.00
2018-07-04T01:48:02.580Z,0.00
2018-07-04T01:48:03.181Z,0.00
2018-07-04T01:48:56.661Z,0.00
2018-07-04T01:48:57.234Z,0.00
2018-07-04T01:48:57.833Z,0.00
2018-07-04T01:48:58.433Z,0.00
2018-07-04T01:48:59.036Z,0.00
2018-07-04T01:48:59.634Z,0.00
2018-07-04T01:49:00.231Z,0.00
2018-07-04T01:49:00.831Z,0.00
2018-07-04T01:49:54.313Z,0.00
2018-07-04T01:49:54.885Z,0.00
2018-07-04T01:49:55.485Z,0.00
2018-07-04T01:49:56.085Z,0.00
2018-07-04T01:49:56.685Z,0.00
2018-07-04T01:49:57.285Z,0.00
2018-07-04T01:49:57.884Z,0.00
2018-07-04T01:49:58.485Z,0.00
2018-07-04T01:50:51.964Z,0.00
2018-07-04T01:50:52.537Z,0.00
2018-07-04T01:50:53.137Z,0.00
2018-07-04T01:50:53.737Z,0.00
2018-07-04T01:50:54.336Z,0.00
2018-07-04T01:50:54.936Z,0.00
2018-07-04T01:50:55.536Z,0.00
2018-07-04T01:50:56.136Z,0.00
2018-07-04T01:51:49.616Z,0.00
2018-07-04T01:51:50.188Z,0.00
2018-07-04T01:51:50.789Z,0.00
2018-07-04T01:51:51.388Z,0.00
2018-07-04T01:51:51.989Z,0.00
2018-07-04T01:51:52.588Z,0.00
2018-07-04T01:51:53.188Z,0.00
2018-07-04T01:51:53.788Z,0.00
2018-07-04T01:52:47.269Z,0.00
2018-07-04T01:52:47.841Z,0.00
2018-07-04T01:52:48.440Z,0.00
2018-07-04T01:52:49.041Z,0.00
2018-07-04T01:52:49.640Z,0.00
2018-07-04T01:52:50.240Z,0.00
2018-07-04T01:52:50.843Z,0.00
2018-07-04T01:52:51.439Z,0.00
2018-07-04T01:53:45.943Z,0.00
2018-07-04T01:53:46.515Z,0.00
2018-07-04T01:53:47.115Z,0.00
2018-07-04T01:53:47.716Z,0.00
2018-07-04T01:53:48.315Z,0.00
2018-07-04T01:53:48.914Z,0.00
2018-07-04T01:53:49.514Z,0.00
2018-07-04T01:53:50.115Z,0.00
2018-07-04T01:54:44.619Z,0.00
2018-07-04T01:54:45.192Z,0.00
2018-07-04T01:54:45.791Z,0.00
2018-07-04T01:54:46.390Z,0.00
2018-07-04T01:54:46.991Z,0.00
2018-07-04T01:54:47.591Z,0.00
2018-07-04T01:54:48.190Z,0.00
2018-07-04T01:54:48.790Z,0.00
2018-07-04T01:55:43.294Z,0.00
2018-07-04T01:55:43.866Z,0.00
2018-07-04T01:55:44.466Z,0.00
2018-07-04T01:55:45.067Z,0.00
2018-07-04T01:55:45.666Z,0.00
2018-07-04T01:55:46.266Z,0.00
2018-07-04T01:55:46.866Z,0.00
2018-07-04T01:55:47.466Z,0.00
2018-07-04T01:56:40.981Z,0.00
2018-07-04T01:56:41.553Z,0.00
2018-07-04T01:56:42.159Z,0.00
2018-07-04T01:56:42.762Z,0.00
2018-07-04T01:56:43.350Z,0.00
2018-07-04T01:56:43.951Z,0.00
2018-07-04T01:56:44.519Z,0.00
2018-07-04T01:56:45.124Z,0.00
2018-07-04T01:57:38.599Z,0.00
2018-07-04T01:57:39.171Z,0.00
2018-07-04T01:57:39.771Z,0.00
2018-07-04T01:57:40.371Z,0.00
2018-07-04T01:57:40.970Z,0.00
2018-07-04T01:57:41.571Z,0.00
2018-07-04T01:57:42.170Z,0.00
2018-07-04T01:57:42.771Z,0.00
2018-07-04T01:58:36.250Z,0.00
2018-07-04T01:58:36.829Z,0.00
2018-07-04T01:58:37.424Z,0.00
2018-07-04T01:58:38.023Z,0.00
2018-07-04T01:58:38.623Z,0.00
2018-07-04T01:58:39.222Z,0.00
2018-07-04T01:58:39.822Z,0.00
2018-07-04T01:58:40.459Z,0.00
2018-07-04T01:59:34.926Z,0.00
2018-07-04T01:59:35.498Z,0.00
2018-07-04T01:59:36.099Z,0.00
2018-07-04T01:59:36.698Z,0.00
2018-07-04T01:59:37.297Z,0.00
2018-07-04T01:59:37.898Z,0.00
2018-07-04T01:59:38.497Z,0.00
2018-07-04T01:59:39.097Z,0.00
2018-07-04T02:00:32.581Z,0.00
2018-07-04T02:00:33.152Z,0.00
2018-07-04T02:00:33.751Z,0.00
2018-07-04T02:00:34.350Z,0.00
2018-07-04T02:00:34.951Z,0.00
2018-07-04T02:00:35.553Z,0.00
2018-07-04T02:00:36.150Z,0.00
2018-07-04T02:00:36.749Z,0.00
2018-07-04T02:01:31.254Z,0.00
2018-07-04T02:01:31.824Z,0.00
2018-07-04T02:01:32.425Z,0.00
2018-07-04T02:01:33.026Z,0.00
2018-07-04T02:01:33.625Z,0.00
2018-07-04T02:01:34.224Z,0.00
2018-07-04T02:01:34.823Z,0.00
2018-07-04T02:01:35.424Z,0.00
2018-07-04T02:02:28.906Z,0.00
2018-07-04T02:02:29.477Z,0.00
2018-07-04T02:02:30.078Z,0.00
2018-07-04T02:02:30.678Z,0.00
2018-07-04T02:02:31.278Z,0.00
2018-07-04T02:02:31.877Z,0.00
2018-07-04T02:02:32.478Z,0.00
2018-07-04T02:02:33.076Z,0.00
2018-07-04T02:03:26.556Z,0.00
2018-07-04T02:03:27.129Z,0.00
2018-07-04T02:03:27.730Z,0.00
2018-07-04T02:03:28.329Z,0.00
2018-07-04T02:03:28.930Z,0.00
2018-07-04T02:03:29.530Z,0.00
2018-07-04T02:03:30.128Z,0.00
2018-07-04T02:03:30.729Z,0.00
2018-07-04T02:04:24.210Z,0.00
2018-07-04T02:04:24.784Z,0.00
2018-07-04T02:04:25.382Z,0.00
2018-07-04T02:04:25.980Z,0.00
2018-07-04T02:04:26.581Z,0.00
2018-07-04T02:04:27.180Z,0.00
2018-07-04T02:04:27.780Z,0.00
2018-07-04T02:04:28.381Z,0.00
2018-07-04T02:05:22.885Z,0.00
2018-07-04T02:05:23.456Z,0.00
2018-07-04T02:05:24.056Z,0.00
2018-07-04T02:05:24.656Z,0.00
2018-07-04T02:05:25.254Z,0.00
2018-07-04T02:05:25.855Z,0.00
2018-07-04T02:05:26.456Z,0.00
2018-07-04T02:05:27.056Z,0.00
2018-07-04T02:06:20.537Z,0.00
2018-07-04T02:06:21.108Z,0.00
2018-07-04T02:06:21.709Z,0.00
2018-07-04T02:06:22.307Z,0.00
2018-07-04T02:06:22.909Z,0.00
2018-07-04T02:06:23.509Z,0.00
2018-07-04T02:06:24.108Z,0.00
2018-07-04T02:06:24.708Z,0.00
2018-07-04T02:07:19.211Z,0.00
2018-07-04T02:07:19.783Z,0.00
2018-07-04T02:07:20.383Z,0.00
2018-07-04T02:07:20.983Z,0.00
2018-07-04T02:07:21.583Z,0.00
2018-07-04T02:07:22.183Z,0.00
2018-07-04T02:07:22.782Z,0.00
2018-07-04T02:07:23.382Z,0.00
2018-07-04T02:08:16.864Z,4.00
2018-07-04T02:08:17.436Z,4.00
2018-07-04T02:08:18.037Z,4.00
2018-07-04T02:08:18.636Z,4.00
2018-07-04T02:08:19.236Z,4.00
2018-07-04T02:08:19.835Z,4.00
2018-07-04T02:08:20.436Z,4.00
2018-07-04T02:08:21.036Z,4.00
2018-07-04T02:09:15.540Z,4.00
2018-07-04T02:09:16.113Z,4.00
2018-07-04T02:09:16.711Z,4.00
2018-07-04T02:09:17.312Z,4.00
2018-07-04T02:09:17.913Z,4.00
2018-07-04T02:09:18.512Z,4.00
2018-07-04T02:09:19.111Z,4.00
2018-07-04T02:09:19.712Z,4.00
2018-07-04T02:10:14.214Z,0.00
2018-07-04T02:10:14.785Z,4.00
2018-07-04T02:10:15.387Z,4.00
2018-07-04T02:10:15.985Z,0.00
2018-07-04T02:10:16.586Z,4.00
2018-07-04T02:10:17.186Z,0.00
2018-07-04T02:10:17.788Z,0.00
2018-07-04T02:10:18.386Z,4.00
2018-07-04T02:11:12.890Z,0.00
2018-07-04T02:11:13.462Z,0.00
2018-07-04T02:11:14.062Z,0.00
2018-07-04T02:11:14.663Z,0.00
2018-07-04T02:11:15.262Z,0.00
2018-07-04T02:11:15.862Z,0.00
2018-07-04T02:11:16.461Z,0.00
2018-07-04T02:11:17.062Z,0.00
2018-07-04T02:12:10.545Z,0.00
2018-07-04T02:12:11.117Z,0.00
2018-07-04T02:12:11.721Z,0.00
2018-07-04T02:12:12.315Z,0.00
2018-07-04T02:12:12.915Z,0.00
2018-07-04T02:12:13.514Z,0.00
2018-07-04T02:12:14.114Z,0.00
2018-07-04T02:12:14.715Z,0.00
2018-07-04T02:13:08.194Z,0.00
2018-07-04T02:13:08.765Z,0.00
2018-07-04T02:13:09.366Z,0.00
2018-07-04T02:13:09.966Z,0.00
2018-07-04T02:13:10.565Z,0.00
2018-07-04T02:13:11.168Z,0.00
2018-07-04T02:13:11.766Z,0.00
2018-07-04T02:13:12.365Z,0.00
2018-07-04T02:14:05.846Z,4.00
2018-07-04T02:14:06.418Z,4.00
2018-07-04T02:14:07.025Z,4.00
2018-07-04T02:14:07.618Z,4.00
2018-07-04T02:14:08.217Z,4.00
2018-07-04T02:14:08.818Z,4.00
2018-07-04T02:14:09.416Z,4.00
2018-07-04T02:14:10.019Z,4.00
2018-07-04T02:15:03.498Z,4.00
2018-07-04T02:15:04.071Z,4.00
2018-07-04T02:15:04.670Z,4.00
2018-07-04T02:15:05.270Z,4.00
2018-07-04T02:15:05.871Z,4.00
2018-07-04T02:15:06.469Z,4.00
2018-07-04T02:15:07.069Z,4.00
2018-07-04T02:15:07.670Z,4.00
2018-07-04T02:16:02.173Z,0.00
2018-07-04T02:16:02.745Z,0.00
2018-07-04T02:16:03.344Z,0.00
2018-07-04T02:16:03.944Z,0.00
2018-07-04T02:16:04.545Z,0.00
2018-07-04T02:16:05.144Z,0.00
2018-07-04T02:16:05.744Z,0.00
2018-07-04T02:16:06.344Z,0.00
2018-07-04T02:16:59.826Z,4.00
2018-07-04T02:17:00.401Z,4.00
2018-07-04T02:17:00.997Z,4.00
2018-07-04T02:17:01.598Z,4.00
2018-07-04T02:17:02.197Z,4.00
2018-07-04T02:17:02.798Z,4.00
2018-07-04T02:17:03.397Z,4.00
2018-07-04T02:17:03.997Z,4.00
2018-07-04T02:17:58.500Z,4.00
2018-07-04T02:17:59.072Z,4.00
2018-07-04T02:17:59.672Z,4.00
2018-07-04T02:18:00.273Z,4.00
2018-07-04T02:18:00.873Z,4.00
2018-07-04T02:18:01.472Z,4.00
2018-07-04T02:18:02.073Z,4.00
2018-07-04T02:18:02.674Z,4.00
2018-07-04T02:18:56.157Z,4.00
2018-07-04T02:18:56.725Z,4.00
2018-07-04T02:18:57.326Z,4.00
2018-07-04T02:18:57.925Z,4.00
2018-07-04T02:18:58.524Z,4.00
2018-07-04T02:18:59.124Z,4.00
2018-07-04T02:18:59.724Z,4.00
2018-07-04T02:19:00.324Z,4.00
2018-07-04T02:19:53.806Z,4.00
2018-07-04T02:19:54.379Z,4.00
2018-07-04T02:19:54.978Z,4.00
2018-07-04T02:19:55.575Z,4.00
2018-07-04T02:19:56.174Z,4.00
2018-07-04T02:19:56.775Z,4.00
2018-07-04T02:19:57.378Z,4.00
2018-07-04T02:19:57.975Z,4.00
2018-07-04T02:20:52.479Z,4.00
2018-07-04T02:20:53.051Z,4.00
2018-07-04T02:20:53.650Z,4.00
2018-07-04T02:20:54.251Z,4.00
2018-07-04T02:20:54.851Z,4.00
2018-07-04T02:20:55.451Z,4.00
2018-07-04T02:20:56.051Z,4.00
2018-07-04T02:20:56.651Z,4.00
2018-07-04T02:21:50.133Z,4.00
2018-07-04T02:21:50.703Z,8.00
2018-07-04T02:21:51.303Z,4.00
2018-07-04T02:21:51.902Z,8.00
2018-07-04T02:21:52.502Z,8.00
2018-07-04T02:21:53.103Z,8.00
2018-07-04T02:21:53.703Z,8.00
2018-07-04T02:21:54.302Z,8.00
2018-07-04T02:22:48.806Z,4.00
2018-07-04T02:22:49.378Z,4.00
2018-07-04T02:22:49.982Z,4.00
2018-07-04T02:22:50.579Z,4.00
2018-07-04T02:22:51.178Z,4.00
2018-07-04T02:22:51.778Z,4.00
2018-07-04T02:22:52.377Z,4.00
2018-07-04T02:22:52.978Z,4.00
2018-07-04T02:23:47.483Z,4.00
2018-07-04T02:23:48.053Z,4.00
2018-07-04T02:23:48.655Z,4.00
2018-07-04T02:23:49.254Z,4.00
2018-07-04T02:23:49.854Z,4.00
2018-07-04T02:23:50.453Z,4.00
2018-07-04T02:23:51.054Z,4.00
2018-07-04T02:23:51.653Z,4.00
2018-07-04T02:24:46.158Z,4.00
2018-07-04T02:24:46.731Z,4.00
2018-07-04T02:24:47.333Z,4.00
2018-07-04T02:24:47.929Z,4.00
2018-07-04T02:24:48.531Z,4.00
2018-07-04T02:24:49.129Z,4.00
2018-07-04T02:24:49.729Z,4.00
2018-07-04T02:24:50.332Z,4.00
2018-07-04T02:25:43.810Z,4.00
2018-07-04T02:25:44.383Z,4.00
2018-07-04T02:25:44.982Z,4.00
2018-07-04T02:25:45.584Z,4.00
2018-07-04T02:25:46.183Z,4.00
2018-07-04T02:25:46.782Z,4.00
2018-07-04T02:25:47.383Z,4.00
2018-07-04T02:25:47.984Z,8.00
2018-07-04T02:26:42.485Z,8.00
2018-07-04T02:26:43.058Z,8.00
2018-07-04T02:26:43.657Z,8.00
2018-07-04T02:26:44.257Z,8.00
2018-07-04T02:26:44.857Z,8.00
2018-07-04T02:26:45.464Z,8.00
2018-07-04T02:26:46.057Z,8.00
2018-07-04T02:26:46.655Z,8.00
2018-07-04T02:27:41.160Z,8.00
2018-07-04T02:27:41.732Z,8.00
2018-07-04T02:27:42.333Z,8.00
2018-07-04T02:27:42.932Z,8.00
2018-07-04T02:27:43.533Z,8.00
2018-07-04T02:27:44.178Z,8.00
2018-07-04T02:27:44.732Z,8.00
2018-07-04T02:27:45.336Z,8.00
2018-07-04T02:28:38.814Z,12.00
2018-07-04T02:28:39.386Z,12.00
2018-07-04T02:28:39.988Z,12.00
2018-07-04T02:28:40.587Z,12.00
2018-07-04T02:28:41.189Z,12.00
2018-07-04T02:28:41.785Z,12.00
2018-07-04T02:28:42.387Z,12.00
2018-07-04T02:28:42.985Z,12.00
2018-07-04T02:29:36.466Z,12.00
2018-07-04T02:29:37.037Z,12.00
2018-07-04T02:29:37.637Z,12.00
2018-07-04T02:29:38.239Z,12.00
2018-07-04T02:29:38.836Z,12.00
2018-07-04T02:29:39.437Z,12.00
2018-07-04T02:29:40.036Z,12.00
2018-07-04T02:29:40.636Z,12.00
2018-07-04T02:30:34.117Z,12.00
2018-07-04T02:30:34.689Z,12.00
2018-07-04T02:30:35.294Z,12.00
2018-07-04T02:30:35.888Z,12.00
2018-07-04T02:30:36.490Z,12.00
2018-07-04T02:30:37.089Z,12.00
2018-07-04T02:30:37.689Z,12.00
2018-07-04T02:30:38.293Z,12.00
2018-07-04T02:31:31.769Z,16.00
2018-07-04T02:31:32.341Z,16.00
2018-07-04T02:31:32.941Z,16.00
2018-07-04T02:31:33.541Z,16.00
2018-07-04T02:31:34.181Z,16.00
2018-07-04T02:31:34.740Z,16.00
2018-07-04T02:31:35.349Z,16.00
2018-07-04T02:31:35.940Z,16.00
2018-07-04T02:32:30.444Z,16.00
2018-07-04T02:32:31.015Z,16.00
2018-07-04T02:32:31.615Z,16.00
2018-07-04T02:32:32.217Z,16.00
2018-07-04T02:32:32.816Z,16.00
2018-07-04T02:32:33.420Z,16.00
2018-07-04T02:32:34.014Z,16.00
2018-07-04T02:32:34.620Z,16.00
2018-07-04T02:33:28.096Z,16.00
2018-07-04T02:33:28.669Z,16.00
2018-07-04T02:33:29.268Z,16.00
2018-07-04T02:33:29.868Z,16.00
2018-07-04T02:33:30.468Z,16.00
2018-07-04T02:33:31.069Z,16.00
2018-07-04T02:33:31.668Z,16.00
2018-07-04T02:33:32.269Z,16.00
2018-07-04T02:34:26.771Z,20.00
2018-07-04T02:34:27.343Z,20.00
2018-07-04T02:34:27.943Z,20.00
2018-07-04T02:34:28.544Z,20.00
2018-07-04T02:34:29.142Z,20.00
2018-07-04T02:34:29.743Z,20.00
2018-07-04T02:34:30.343Z,20.00
2018-07-04T02:34:30.943Z,20.00
2018-07-04T02:35:24.425Z,20.00
2018-07-04T02:35:24.996Z,20.00
2018-07-04T02:35:25.597Z,20.00
2018-07-04T02:35:26.195Z,24.00
2018-07-04T02:35:26.795Z,24.00
2018-07-04T02:35:27.396Z,24.00
2018-07-04T02:35:27.996Z,24.00
2018-07-04T02:35:28.595Z,24.00
2018-07-04T02:36:23.099Z,24.00
2018-07-04T02:36:23.673Z,24.00
2018-07-04T02:36:24.278Z,24.00
2018-07-04T02:36:24.869Z,24.00
2018-07-04T02:36:25.469Z,28.00
2018-07-04T02:36:26.069Z,28.00
2018-07-04T02:36:26.668Z,28.00
2018-07-04T02:36:27.269Z,28.00
2018-07-04T02:37:20.755Z,28.00
2018-07-04T02:37:21.322Z,28.00
2018-07-04T02:37:21.927Z,28.00
2018-07-04T02:37:22.522Z,28.00
2018-07-04T02:37:23.122Z,28.00
2018-07-04T02:37:23.722Z,28.00
2018-07-04T02:37:24.321Z,28.00
2018-07-04T02:37:24.921Z,28.00
2018-07-04T02:38:18.403Z,32.00
2018-07-04T02:38:18.976Z,32.00
2018-07-04T02:38:19.575Z,32.00
2018-07-04T02:38:20.178Z,28.00
2018-07-04T02:38:20.775Z,28.00
2018-07-04T02:38:21.375Z,28.00
2018-07-04T02:38:21.975Z,28.00
2018-07-04T02:38:22.574Z,28.00
2018-07-04T02:39:17.077Z,36.00
2018-07-04T02:39:17.652Z,36.00
2018-07-04T02:39:18.249Z,36.00
2018-07-04T02:39:18.848Z,36.00
2018-07-04T02:39:19.451Z,32.00
2018-07-04T02:39:20.049Z,32.00
2018-07-04T02:39:20.650Z,32.00
2018-07-04T02:39:21.249Z,32.00
2018-07-04T02:40:14.730Z,36.00
2018-07-04T02:40:15.302Z,36.00
2018-07-04T02:40:15.901Z,36.00
2018-07-04T02:40:16.503Z,36.00
2018-07-04T02:40:17.102Z,36.00
2018-07-04T02:40:17.704Z,36.00
2018-07-04T02:40:18.303Z,36.00
2018-07-04T02:40:18.905Z,36.00
2018-07-04T02:41:12.382Z,40.00
2018-07-04T02:41:12.953Z,40.00
2018-07-04T02:41:13.553Z,40.00
2018-07-04T02:41:14.154Z,40.00
2018-07-04T02:41:14.752Z,40.00
2018-07-04T02:41:15.354Z,40.00
2018-07-04T02:41:15.953Z,40.00
2018-07-04T02:41:16.556Z,40.00
2018-07-04T02:42:11.056Z,44.00
2018-07-04T02:42:11.630Z,44.00
2018-07-04T02:42:12.229Z,44.00
2018-07-04T02:42:12.829Z,44.00
2018-07-04T02:42:13.429Z,44.00
2018-07-04T02:42:14.028Z,44.00
2018-07-04T02:42:14.628Z,44.00
2018-07-04T02:42:15.229Z,44.00
2018-07-04T02:43:09.733Z,48.00
2018-07-04T02:43:10.305Z,48.00
2018-07-04T02:43:10.908Z,48.00
2018-07-04T02:43:11.503Z,48.00
2018-07-04T02:43:12.102Z,48.00
2018-07-04T02:43:12.703Z,48.00
2018-07-04T02:43:13.302Z,48.00
2018-07-04T02:43:13.902Z,48.00
2018-07-04T02:44:08.407Z,56.00
2018-07-04T02:44:08.980Z,56.00
2018-07-04T02:44:09.579Z,56.00
2018-07-04T02:44:10.179Z,56.00
2018-07-04T02:44:10.780Z,56.00
2018-07-04T02:44:11.380Z,56.00
2018-07-04T02:44:11.993Z,56.00
2018-07-04T02:44:12.581Z,56.00
2018-07-04T02:45:07.190Z,60.00
2018-07-04T02:45:07.681Z,56.00
2018-07-04T02:45:08.261Z,60.00
2018-07-04T02:45:08.858Z,60.00
2018-07-04T02:45:09.455Z,60.00
2018-07-04T02:45:10.056Z,60.00
2018-07-04T02:45:10.658Z,60.00
2018-07-04T02:45:11.254Z,60.00
2018-07-04T02:46:05.760Z,68.00
2018-07-04T02:46:06.335Z,68.00
2018-07-04T02:46:06.933Z,68.00
2018-07-04T02:46:07.532Z,68.00
2018-07-04T02:46:08.133Z,68.00
2018-07-04T02:46:08.731Z,68.00
2018-07-04T02:46:09.330Z,68.00
2018-07-04T02:46:09.932Z,64.00
2018-07-04T02:47:04.436Z,72.00
2018-07-04T02:47:05.008Z,72.00
2018-07-04T02:47:05.610Z,72.00
2018-07-04T02:47:06.209Z,72.00
2018-07-04T02:47:06.806Z,72.00
2018-07-04T02:47:07.408Z,72.00
2018-07-04T02:47:08.007Z,72.00
2018-07-04T02:47:08.609Z,72.00
2018-07-04T02:48:03.110Z,80.00
2018-07-04T02:48:03.685Z,76.00
2018-07-04T02:48:04.282Z,76.00
2018-07-04T02:48:04.883Z,76.00
2018-07-04T02:48:05.483Z,76.00
2018-07-04T02:48:06.083Z,80.00
2018-07-04T02:48:06.685Z,80.00
2018-07-04T02:48:07.285Z,80.00
2018-07-04T02:49:00.764Z,84.00
2018-07-04T02:49:01.336Z,88.00
2018-07-04T02:49:01.937Z,88.00
2018-07-04T02:49:02.539Z,88.00
2018-07-04T02:49:03.137Z,88.00
2018-07-04T02:49:03.734Z,88.00
2018-07-04T02:49:04.339Z,88.00
2018-07-04T02:49:04.935Z,84.00
2018-07-04T02:49:58.417Z,92.00
2018-07-04T02:49:58.989Z,92.00
2018-07-04T02:49:59.588Z,92.00
2018-07-04T02:50:00.189Z,96.00
2018-07-04T02:50:00.790Z,96.00
2018-07-04T02:50:01.389Z,96.00
2018-07-04T02:50:01.987Z,96.00
2018-07-04T02:50:02.587Z,96.00
2018-07-04T02:50:56.067Z,100.00
2018-07-04T02:50:56.640Z,104.00
2018-07-04T02:50:57.238Z,104.00
2018-07-04T02:50:57.839Z,104.00
2018-07-04T02:50:58.438Z,104.00
2018-07-04T02:50:59.042Z,100.00
2018-07-04T02:50:59.638Z,100.00
2018-07-04T02:51:00.238Z,100.00
2018-07-04T02:51:54.742Z,108.00
2018-07-04T02:51:55.313Z,108.00
2018-07-04T02:51:55.913Z,108.00
2018-07-04T02:51:56.515Z,108.00
2018-07-04T02:51:57.122Z,108.00
2018-07-04T02:51:57.714Z,112.00
2018-07-04T02:51:58.315Z,112.00
2018-07-04T02:51:58.914Z,112.00
2018-07-04T02:52:52.395Z,120.00
2018-07-04T02:52:52.966Z,120.00
2018-07-04T02:52:53.567Z,120.00
2018-07-04T02:52:54.167Z,120.00
2018-07-04T02:52:54.767Z,120.00
2018-07-04T02:52:55.367Z,116.00
2018-07-04T02:52:55.966Z,116.00
2018-07-04T02:52:56.572Z,120.00
2018-07-04T02:53:50.047Z,128.00
2018-07-04T02:53:50.620Z,128.00
2018-07-04T02:53:51.219Z,128.00
2018-07-04T02:53:51.819Z,128.00
2018-07-04T02:53:52.420Z,128.00
2018-07-04T02:53:53.018Z,132.00
2018-07-04T02:53:53.621Z,132.00
2018-07-04T02:53:54.218Z,132.00
2018-07-04T02:54:47.699Z,140.00
2018-07-04T02:54:48.270Z,140.00
2018-07-04T02:54:48.869Z,140.00
2018-07-04T02:54:49.469Z,140.00
2018-07-04T02:54:50.070Z,140.00
2018-07-04T02:54:50.670Z,140.00
2018-07-04T02:54:51.279Z,140.00
2018-07-04T02:54:51.870Z,136.00
2018-07-04T02:55:45.387Z,148.00
2018-07-04T02:55:45.921Z,148.00
2018-07-04T02:55:46.521Z,148.00
2018-07-04T02:55:47.122Z,148.00
2018-07-04T02:55:47.721Z,148.00
2018-07-04T02:55:48.321Z,148.00
2018-07-04T02:55:48.921Z,152.00
2018-07-04T02:55:49.519Z,152.00
2018-07-04T02:56:44.025Z,160.00
2018-07-04T02:56:44.596Z,160.00
2018-07-04T02:56:45.196Z,160.00
2018-07-04T02:56:45.799Z,160.00
2018-07-04T02:56:46.397Z,160.00
2018-07-04T02:56:46.996Z,164.00
2018-07-04T02:56:47.604Z,164.00
2018-07-04T02:56:48.198Z,164.00
2018-07-04T02:57:42.700Z,172.00
2018-07-04T02:57:43.272Z,172.00
2018-07-04T02:57:43.872Z,172.00
2018-07-04T02:57:44.472Z,172.00
2018-07-04T02:57:45.075Z,176.00
2018-07-04T02:57:45.671Z,176.00
2018-07-04T02:57:46.272Z,176.00
2018-07-04T02:57:46.877Z,176.00
2018-07-04T02:58:41.377Z,188.00
2018-07-04T02:58:41.949Z,188.00
2018-07-04T02:58:42.548Z,184.00
2018-07-04T02:58:43.148Z,184.00
2018-07-04T02:58:43.748Z,184.00
2018-07-04T02:58:44.350Z,188.00
2018-07-04T02:58:44.947Z,188.00
2018-07-04T02:58:45.546Z,188.00
2018-07-04T02:59:39.030Z,196.00
2018-07-04T02:59:39.601Z,200.00
2018-07-04T02:59:40.200Z,200.00
2018-07-04T02:59:40.801Z,200.00
2018-07-04T02:59:41.405Z,200.00
2018-07-04T02:59:41.998Z,200.00
2018-07-04T02:59:42.599Z,200.00
2018-07-04T02:59:43.198Z,204.00
2018-07-04T03:00:36.683Z,216.00
2018-07-04T03:00:37.254Z,216.00
2018-07-04T03:00:37.852Z,216.00
2018-07-04T03:00:38.453Z,212.00
2018-07-04T03:00:39.052Z,212.00
2018-07-04T03:00:39.651Z,216.00
2018-07-04T03:00:40.250Z,216.00
2018-07-04T03:00:40.853Z,216.00
2018-07-04T03:01:34.331Z,228.00
2018-07-04T03:01:34.904Z,228.00
2018-07-04T03:01:35.504Z,232.00
2018-07-04T03:01:36.105Z,232.00
2018-07-04T03:01:36.704Z,232.00
2018-07-04T03:01:37.304Z,228.00
2018-07-04T03:01:37.904Z,228.00
2018-07-04T03:01:38.502Z,228.00
2018-07-04T03:02:31.984Z,244.00
2018-07-04T03:02:32.556Z,244.00
2018-07-04T03:02:33.158Z,244.00
2018-07-04T03:02:33.756Z,244.00
2018-07-04T03:02:34.355Z,248.00
2018-07-04T03:02:34.956Z,248.00
2018-07-04T03:02:35.555Z,248.00
2018-07-04T03:02:36.154Z,244.00
2018-07-04T03:03:30.658Z,260.00
2018-07-04T03:03:31.234Z,264.00
2018-07-04T03:03:31.831Z,264.00
2018-07-04T03:03:32.432Z,260.00
2018-07-04T03:03:33.030Z,260.00
2018-07-04T03:03:33.629Z,260.00
2018-07-04T03:03:34.231Z,260.00
2018-07-04T03:03:34.830Z,264.00
2018-07-04T03:04:29.334Z,276.00
2018-07-04T03:04:29.906Z,276.00
2018-07-04T03:04:30.506Z,276.00
2018-07-04T03:04:31.105Z,280.00
2018-07-04T03:04:31.706Z,280.00
2018-07-04T03:04:32.305Z,280.00
2018-07-04T03:04:32.907Z,280.00
2018-07-04T03:04:33.505Z,280.00
2018-07-04T03:05:26.989Z,296.00
2018-07-04T03:05:27.558Z,296.00
2018-07-04T03:05:28.157Z,296.00